Atlanta, GA

6:49 PM EDT on August 29, 2014 (GMT -0400)
Dobbins Air Force Base | Change Station
CLOSE
Current Station
Airport
Location: Marietta,
Elevation: 1070 ft
Nearby Weather Stations

Elev 1070 ft 33.92 °N, 84.52 °W | Updated 51 minutes ago

Mostly Cloudy
Mostly Cloudy
91 °F
Feels Like 90 °F
N
8
Wind Variable Wind from South

Today
High -- | Low -- °F
--% Chance of Precip.
Yesterday
High -- | Low -- °F
Precip. -- in
7:09 AM 8:07 PM
Waxing Crescent, 17% visible
Pressure 30.02 in
Visibility 10.0 miles
Clouds Scattered Clouds 8000 ft
Mostly Cloudy 25000 ft
Heat Index 90 °F
Dew Point 58 °F
Humidity 32%
Rainfall 0.00 in
Snow Depth Not available.
UV 1 out of 12
Pollen 9.10 out of 12
Ozone Moderate
PM2.5 Moderate
Flu Activity Not available.
METAR KMGE 292158Z 17007KT 10SM SCT080 BKN250 33/14 A3005 RMK AO2A SLP166 T03290142 $

More Conditions Fewer Conditions

Pressure 30.02 in
Visibility 10.0 miles
Clouds Scattered Clouds 8000 ft
Mostly Cloudy 25000 ft
Heat Index 90 °F
Dew Point 58 °F
Humidity 32%
Rainfall 0.00 in
Snow Depth Not available.
UV 1 out of 12
Pollen 9.10 out of 12
Ozone Moderate
PM2.5 Moderate
Flu Activity Not available.
METAR KMGE 292158Z 17007KT 10SM SCT080 BKN250 33/14 A3005 RMK AO2A SLP166 T03290142 $

More Conditions Fewer Conditions

10-Day Weather Forecast

Almanac

Astronomy

Aug. 29, 2014 Rise Set
Actual Time 7:09 AM EDT 8:07 PM EDT
Civil Twilight 6:43 AM EDT 8:32 PM EDT
Nautical Twilight 6:13 AM EDT 9:02 PM EDT
Astronomical Twilight 5:41 AM EDT 9:34 PM EDT
Moon 10:45 AM EDT 10:17 PM EDT
Length of Visible Light 13h 49m
Length of Day
12h 57m
Tomorrow will be 1m 59s shorter.
Waxing Crescent, 17% of the Moon is Illuminated
Today
Waxing Crescent
Sep 2
First Quarter
Sep 8
Full
Sep 15
Last Quarter
Sep 24
New

Today's Extremes

State Highs State Lows

Community

WunderPhotos

Upload Photos

1,748,363 photos uploaded!

Nearby

Air Quality

  Air Quality AQ Index Pollutant
Yesterday Moderate
OZONE
Yesterday Good
PM10
Current Moderate
OZONE
Current Moderate
PM2.5
Friday Unhealthy for Sensitive Groups
OZONE
Friday Moderate
PM2.5
Saturday Moderate
PM2.5
Saturday Good
OZONE

Snow Depth

Station Depth Elevation
No new snow has been reported.

Earthquake Activity

City Distance Mag. Time & Date
No recent earthquake activity has been reported nearby.
Minimum magnitude displayed is 2.5.

Coastal Water Temperatures

Place Temperature
No Stations Reporting

Nearby Weather Stations